sensor_id;sensor_type;location;lat;lon;timestamp;temperature;humidity
29203;DHT22;16245;51.170;4.884;2023-03-04T00:00:56;6.60;99.90
29203;DHT22;16245;51.170;4.884;2023-03-04T00:03:22;6.50;99.90
29203;DHT22;16245;51.170;4.884;2023-03-04T00:05:47;6.40;99.90
29203;DHT22;16245;51.170;4.884;2023-03-04T00:08:13;6.50;99.90
29203;DHT22;16245;51.170;4.884;2023-03-04T00:10:39;6.40;99.90
29203;DHT22;16245;51.170;4.884;2023-03-04T00:13:05;6.40;99.90
29203;DHT22;16245;51.170;4.884;2023-03-04T00:15:30;6.40;99.90
29203;DHT22;16245;51.170;4.884;2023-03-04T00:17:56;6.60;99.90
29203;DHT22;16245;51.170;4.884;2023-03-04T00:20:22;6.50;99.90
29203;DHT22;16245;51.170;4.884;2023-03-04T00:22:47;6.50;99.90
29203;DHT22;16245;51.170;4.884;2023-03-04T00:25:13;6.50;99.90
29203;DHT22;16245;51.170;4.884;2023-03-04T00:27:39;6.50;99.90
29203;DHT22;16245;51.170;4.884;2023-03-04T00:30:06;6.40;99.90
29203;DHT22;16245;51.170;4.884;2023-03-04T00:32:31;6.40;99.90
29203;DHT22;16245;51.170;4.884;2023-03-04T00:34:58;6.50;99.90
29203;DHT22;16245;51.170;4.884;2023-03-04T00:37:24;6.60;99.90
29203;DHT22;16245;51.170;4.884;2023-03-04T00:39:50;6.50;99.90
29203;DHT22;16245;51.170;4.884;2023-03-04T00:42:15;6.50;99.90
29203;DHT22;16245;51.170;4.884;2023-03-04T00:44:41;6.50;99.90
29203;DHT22;16245;51.170;4.884;2023-03-04T00:47:06;6.50;99.90
29203;DHT22;16245;51.170;4.884;2023-03-04T00:49:32;6.60;99.90
29203;DHT22;16245;51.170;4.884;2023-03-04T00:51:58;6.60;99.90
29203;DHT22;16245;51.170;4.884;2023-03-04T00:54:23;6.70;99.90
29203;DHT22;16245;51.170;4.884;2023-03-04T00:56:49;6.60;99.90
29203;DHT22;16245;51.170;4.884;2023-03-04T00:59:15;6.50;99.90
29203;DHT22;16245;51.170;4.884;2023-03-04T01:01:40;6.50;99.90
29203;DHT22;16245;51.170;4.884;2023-03-04T01:04:06;6.50;99.90
29203;DHT22;16245;51.170;4.884;2023-03-04T01:06:32;6.50;99.90
29203;DHT22;16245;51.170;4.884;2023-03-04T01:08:57;6.60;99.90
29203;DHT22;16245;51.170;4.884;2023-03-04T01:11:23;6.60;99.90
29203;DHT22;16245;51.170;4.884;2023-03-04T01:13:49;6.60;99.90
29203;DHT22;16245;51.170;4.884;2023-03-04T01:16:15;6.60;99.90
29203;DHT22;16245;51.170;4.884;2023-03-04T01:18:40;6.60;99.90
29203;DHT22;16245;51.170;4.884;2023-03-04T01:21:06;6.60;99.90
29203;DHT22;16245;51.170;4.884;2023-03-04T01:23:32;6.60;99.90
29203;DHT22;16245;51.170;4.884;2023-03-04T01:25:58;6.60;99.90
29203;DHT22;16245;51.170;4.884;2023-03-04T01:28:23;6.50;99.90
29203;DHT22;16245;51.170;4.884;2023-03-04T01:30:49;6.50;99.90
29203;DHT22;16245;51.170;4.884;2023-03-04T01:33:15;6.40;99.90
29203;DHT22;16245;51.170;4.884;2023-03-04T01:35:40;6.40;99.90
29203;DHT22;16245;51.170;4.884;2023-03-04T01:38:06;6.50;99.90
29203;DHT22;16245;51.170;4.884;2023-03-04T01:40:32;6.40;99.90
29203;DHT22;16245;51.170;4.884;2023-03-04T01:42:58;6.50;99.90
29203;DHT22;16245;51.170;4.884;2023-03-04T01:45:24;6.60;99.90
29203;DHT22;16245;51.170;4.884;2023-03-04T01:47:50;6.70;99.90
29203;DHT22;16245;51.170;4.884;2023-03-04T01:50:32;6.60;99.90
29203;DHT22;16245;51.170;4.884;2023-03-04T01:52:59;6.50;99.90
29203;DHT22;16245;51.170;4.884;2023-03-04T01:55:25;6.40;99.90
29203;DHT22;16245;51.170;4.884;2023-03-04T01:57:52;6.40;99.90
29203;DHT22;16245;51.170;4.884;2023-03-04T02:02:47;6.50;99.90
29203;DHT22;16245;51.170;4.884;2023-03-04T02:05:14;6.50;99.90
29203;DHT22;16245;51.170;4.884;2023-03-04T02:07:41;6.40;99.90
29203;DHT22;16245;51.170;4.884;2023-03-04T02:10:08;6.40;99.90
29203;DHT22;16245;51.170;4.884;2023-03-04T02:12:34;6.40;99.90
29203;DHT22;16245;51.170;4.884;2023-03-04T02:15:00;6.40;99.90
29203;DHT22;16245;51.170;4.884;2023-03-04T02:17:26;6.40;99.90
29203;DHT22;16245;51.170;4.884;2023-03-04T02:22:18;6.40;99.90
29203;DHT22;16245;51.170;4.884;2023-03-04T02:24:53;6.40;99.90
29203;DHT22;16245;51.170;4.884;2023-03-04T02:27:19;6.40;99.90
29203;DHT22;16245;51.170;4.884;2023-03-04T02:29:45;6.40;99.90
29203;DHT22;16245;51.170;4.884;2023-03-04T02:32:12;6.40;99.90
29203;DHT22;16245;51.170;4.884;2023-03-04T02:34:45;6.40;99.90
29203;DHT22;16245;51.170;4.884;2023-03-04T02:37:10;6.40;99.90
29203;DHT22;16245;51.170;4.884;2023-03-04T02:39:42;6.40;99.90
29203;DHT22;16245;51.170;4.884;2023-03-04T02:42:08;6.40;99.90
29203;DHT22;16245;51.170;4.884;2023-03-04T02:44:37;6.40;99.90
29203;DHT22;16245;51.170;4.884;2023-03-04T02:47:07;6.50;99.90
29203;DHT22;16245;51.170;4.884;2023-03-04T02:49:33;6.60;99.90
29203;DHT22;16245;51.170;4.884;2023-03-04T02:52:26;6.60;99.90
29203;DHT22;16245;51.170;4.884;2023-03-04T02:54:52;6.60;99.90
29203;DHT22;16245;51.170;4.884;2023-03-04T02:57:17;6.60;99.90
29203;DHT22;16245;51.170;4.884;2023-03-04T02:59:43;6.70;99.90
29203;DHT22;16245;51.170;4.884;2023-03-04T03:02:09;6.50;99.90
29203;DHT22;16245;51.170;4.884;2023-03-04T03:04:36;6.50;99.90
29203;DHT22;16245;51.170;4.884;2023-03-04T03:07:03;6.40;99.90
29203;DHT22;16245;51.170;4.884;2023-03-04T03:09:29;6.40;99.90
29203;DHT22;16245;51.170;4.884;2023-03-04T03:11:54;6.50;99.90
29203;DHT22;16245;51.170;4.884;2023-03-04T03:14:20;6.50;99.90
29203;DHT22;16245;51.170;4.884;2023-03-04T03:16:46;6.50;99.90
29203;DHT22;16245;51.170;4.884;2023-03-04T03:19:11;6.40;99.90
29203;DHT22;16245;51.170;4.884;2023-03-04T03:21:37;6.50;99.90
29203;DHT22;16245;51.170;4.884;2023-03-04T03:24:03;6.50;99.90
29203;DHT22;16245;51.170;4.884;2023-03-04T03:26:28;6.50;99.90
29203;DHT22;16245;51.170;4.884;2023-03-04T03:28:54;6.50;99.90
29203;DHT22;16245;51.170;4.884;2023-03-04T03:31:19;6.40;99.90
29203;DHT22;16245;51.170;4.884;2023-03-04T03:33:45;6.40;99.90
29203;DHT22;16245;51.170;4.884;2023-03-04T03:36:11;6.40;99.90
29203;DHT22;16245;51.170;4.884;2023-03-04T03:38:37;6.50;99.90
29203;DHT22;16245;51.170;4.884;2023-03-04T03:41:03;6.50;99.90
29203;DHT22;16245;51.170;4.884;2023-03-04T03:43:28;6.50;99.90
29203;DHT22;16245;51.170;4.884;2023-03-04T03:45:54;6.50;99.90
29203;DHT22;16245;51.170;4.884;2023-03-04T03:48:20;6.50;99.90
29203;DHT22;16245;51.170;4.884;2023-03-04T03:50:45;6.50;99.90
29203;DHT22;16245;51.170;4.884;2023-03-04T03:53:11;6.40;99.90
29203;DHT22;16245;51.170;4.884;2023-03-04T03:55:37;6.40;99.90
29203;DHT22;16245;51.170;4.884;2023-03-04T03:58:03;6.30;99.90
29203;DHT22;16245;51.170;4.884;2023-03-04T04:00:29;6.30;99.90
29203;DHT22;16245;51.170;4.884;2023-03-04T04:02:56;6.40;99.90
29203;DHT22;16245;51.170;4.884;2023-03-04T04:05:22;6.40;99.90
29203;DHT22;16245;51.170;4.884;2023-03-04T04:07:48;6.40;99.90
29203;DHT22;16245;51.170;4.884;2023-03-04T04:10:13;6.50;99.90
29203;DHT22;16245;51.170;4.884;2023-03-04T04:12:39;6.60;99.90
29203;DHT22;16245;51.170;4.884;2023-03-04T04:15:05;6.60;99.90
29203;DHT22;16245;51.170;4.884;2023-03-04T04:17:31;6.60;99.90
29203;DHT22;16245;51.170;4.884;2023-03-04T04:19:57;6.70;99.90
29203;DHT22;16245;51.170;4.884;2023-03-04T04:22:22;6.60;99.90
29203;DHT22;16245;51.170;4.884;2023-03-04T04:24:48;6.50;99.90
29203;DHT22;16245;51.170;4.884;2023-03-04T04:27:14;6.50;99.90
29203;DHT22;16245;51.170;4.884;2023-03-04T04:29:40;6.40;99.90
29203;DHT22;16245;51.170;4.884;2023-03-04T04:32:06;6.40;99.90
29203;DHT22;16245;51.170;4.884;2023-03-04T04:34:33;6.50;99.90
29203;DHT22;16245;51.170;4.884;2023-03-04T04:36:59;6.40;99.90
29203;DHT22;16245;51.170;4.884;2023-03-04T04:39:25;6.50;99.90
29203;DHT22;16245;51.170;4.884;2023-03-04T04:41:51;6.40;99.90
29203;DHT22;16245;51.170;4.884;2023-03-04T04:44:16;6.40;99.90
29203;DHT22;16245;51.170;4.884;2023-03-04T04:46:42;6.40;99.90
29203;DHT22;16245;51.170;4.884;2023-03-04T04:49:08;6.40;99.90
29203;DHT22;16245;51.170;4.884;2023-03-04T04:51:35;6.40;99.90
29203;DHT22;16245;51.170;4.884;2023-03-04T04:54:02;6.50;99.90
29203;DHT22;16245;51.170;4.884;2023-03-04T04:56:28;6.50;99.90
29203;DHT22;16245;51.170;4.884;2023-03-04T04:58:56;6.50;99.90
29203;DHT22;16245;51.170;4.884;2023-03-04T05:01:22;6.50;99.90
29203;DHT22;16245;51.170;4.884;2023-03-04T05:03:48;6.50;99.90
29203;DHT22;16245;51.170;4.884;2023-03-04T05:06:21;6.50;99.90
29203;DHT22;16245;51.170;4.884;2023-03-04T05:08:48;6.50;99.90
29203;DHT22;16245;51.170;4.884;2023-03-04T05:11:13;6.60;99.90
29203;DHT22;16245;51.170;4.884;2023-03-04T05:13:40;6.50;99.90
29203;DHT22;16245;51.170;4.884;2023-03-04T05:16:06;6.50;99.90
29203;DHT22;16245;51.170;4.884;2023-03-04T05:18:32;6.50;99.90
29203;DHT22;16245;51.170;4.884;2023-03-04T05:20:59;6.50;99.90
29203;DHT22;16245;51.170;4.884;2023-03-04T05:23:27;6.50;99.90
29203;DHT22;16245;51.170;4.884;2023-03-04T05:25:53;6.50;99.90
29203;DHT22;16245;51.170;4.884;2023-03-04T05:28:19;6.40;99.90
29203;DHT22;16245;51.170;4.884;2023-03-04T05:30:45;6.40;99.90
29203;DHT22;16245;51.170;4.884;2023-03-04T05:33:12;6.40;99.90
29203;DHT22;16245;51.170;4.884;2023-03-04T05:35:40;6.40;99.90
29203;DHT22;16245;51.170;4.884;2023-03-04T05:38:07;6.40;99.90
29203;DHT22;16245;51.170;4.884;2023-03-04T05:40:34;6.40;99.90
29203;DHT22;16245;51.170;4.884;2023-03-04T05:43:00;6.50;99.90
29203;DHT22;16245;51.170;4.884;2023-03-04T05:45:26;6.60;99.90
29203;DHT22;16245;51.170;4.884;2023-03-04T05:47:52;6.50;99.90
29203;DHT22;16245;51.170;4.884;2023-03-04T05:50:19;6.50;99.90
29203;DHT22;16245;51.170;4.884;2023-03-04T05:52:45;6.50;99.90
29203;DHT22;16245;51.170;4.884;2023-03-04T05:55:11;6.40;99.90
29203;DHT22;16245;51.170;4.884;2023-03-04T05:57:37;6.30;99.90
29203;DHT22;16245;51.170;4.884;2023-03-04T06:00:03;6.30;99.90
29203;DHT22;16245;51.170;4.884;2023-03-04T06:02:30;6.40;99.90
29203;DHT22;16245;51.170;4.884;2023-03-04T06:04:56;6.40;99.90
29203;DHT22;16245;51.170;4.884;2023-03-04T06:07:21;6.40;99.90
29203;DHT22;16245;51.170;4.884;2023-03-04T06:09:47;6.40;99.90
29203;DHT22;16245;51.170;4.884;2023-03-04T06:12:13;6.40;99.90
29203;DHT22;16245;51.170;4.884;2023-03-04T06:14:38;6.40;99.90
29203;DHT22;16245;51.170;4.884;2023-03-04T06:17:04;6.40;99.90
29203;DHT22;16245;51.170;4.884;2023-03-04T06:19:30;6.40;99.90
29203;DHT22;16245;51.170;4.884;2023-03-04T06:21:55;6.50;99.90
29203;DHT22;16245;51.170;4.884;2023-03-04T06:24:21;6.50;99.90
29203;DHT22;16245;51.170;4.884;2023-03-04T06:26:47;6.50;99.90
29203;DHT22;16245;51.170;4.884;2023-03-04T06:29:13;6.50;99.90
29203;DHT22;16245;51.170;4.884;2023-03-04T06:31:38;6.40;99.90
29203;DHT22;16245;51.170;4.884;2023-03-04T06:34:07;6.40;99.90
29203;DHT22;16245;51.170;4.884;2023-03-04T06:36:33;6.40;99.90
29203;DHT22;16245;51.170;4.884;2023-03-04T06:39:00;6.30;99.90
29203;DHT22;16245;51.170;4.884;2023-03-04T06:41:26;6.40;99.90
29203;DHT22;16245;51.170;4.884;2023-03-04T06:43:55;6.40;99.90
29203;DHT22;16245;51.170;4.884;2023-03-04T06:46:21;6.40;99.90
29203;DHT22;16245;51.170;4.884;2023-03-04T06:48:46;6.40;99.90
29203;DHT22;16245;51.170;4.884;2023-03-04T06:51:12;6.50;99.90
29203;DHT22;16245;51.170;4.884;2023-03-04T06:53:39;6.50;99.90
29203;DHT22;16245;51.170;4.884;2023-03-04T06:56:06;6.50;99.90
29203;DHT22;16245;51.170;4.884;2023-03-04T06:58:32;6.50;99.90
29203;DHT22;16245;51.170;4.884;2023-03-04T07:03:36;6.40;99.90
29203;DHT22;16245;51.170;4.884;2023-03-04T07:06:02;6.40;99.90
29203;DHT22;16245;51.170;4.884;2023-03-04T07:08:28;6.40;99.90
29203;DHT22;16245;51.170;4.884;2023-03-04T07:10:53;6.40;99.90
29203;DHT22;16245;51.170;4.884;2023-03-04T07:13:19;6.40;99.90
29203;DHT22;16245;51.170;4.884;2023-03-04T07:15:45;6.40;99.90
29203;DHT22;16245;51.170;4.884;2023-03-04T07:18:10;6.40;99.90
29203;DHT22;16245;51.170;4.884;2023-03-04T07:20:36;6.50;99.90
29203;DHT22;16245;51.170;4.884;2023-03-04T07:23:02;6.40;99.90
29203;DHT22;16245;51.170;4.884;2023-03-04T07:25:27;6.50;99.90
29203;DHT22;16245;51.170;4.884;2023-03-04T07:27:53;6.50;99.90
29203;DHT22;16245;51.170;4.884;2023-03-04T07:30:19;6.60;99.90
29203;DHT22;16245;51.170;4.884;2023-03-04T07:32:45;6.50;99.90
29203;DHT22;16245;51.170;4.884;2023-03-04T07:35:10;6.50;99.90
29203;DHT22;16245;51.170;4.884;2023-03-04T07:37:36;6.60;99.90
29203;DHT22;16245;51.170;4.884;2023-03-04T07:40:02;6.60;99.90
29203;DHT22;16245;51.170;4.884;2023-03-04T07:42:28;6.70;99.90
29203;DHT22;16245;51.170;4.884;2023-03-04T07:44:53;6.70;99.90
29203;DHT22;16245;51.170;4.884;2023-03-04T07:47:19;6.70;99.90
29203;DHT22;16245;51.170;4.884;2023-03-04T07:49:45;6.70;99.90
29203;DHT22;16245;51.170;4.884;2023-03-04T07:52:11;6.60;99.90
29203;DHT22;16245;51.170;4.884;2023-03-04T07:54:39;6.60;99.90
29203;DHT22;16245;51.170;4.884;2023-03-04T07:57:04;6.60;99.90
29203;DHT22;16245;51.170;4.884;2023-03-04T07:59:30;6.60;99.90
29203;DHT22;16245;51.170;4.884;2023-03-04T08:01:56;6.70;99.90
29203;DHT22;16245;51.170;4.884;2023-03-04T08:04:21;6.70;99.90
29203;DHT22;16245;51.170;4.884;2023-03-04T08:06:47;6.80;99.90
29203;DHT22;16245;51.170;4.884;2023-03-04T08:09:13;6.80;99.90
29203;DHT22;16245;51.170;4.884;2023-03-04T08:11:39;6.80;99.90
29203;DHT22;16245;51.170;4.884;2023-03-04T08:14:06;6.80;99.90
29203;DHT22;16245;51.170;4.884;2023-03-04T08:16:32;6.90;99.90
29203;DHT22;16245;51.170;4.884;2023-03-04T08:19:00;6.90;99.90
29203;DHT22;16245;51.170;4.884;2023-03-04T08:21:27;6.90;99.90
29203;DHT22;16245;51.170;4.884;2023-03-04T08:23:53;7.00;99.90
29203;DHT22;16245;51.170;4.884;2023-03-04T08:26:25;7.00;99.90
29203;DHT22;16245;51.170;4.884;2023-03-04T08:28:52;6.90;99.90
29203;DHT22;16245;51.170;4.884;2023-03-04T08:31:18;7.00;99.90
29203;DHT22;16245;51.170;4.884;2023-03-04T08:33:44;7.00;99.90
29203;DHT22;16245;51.170;4.884;2023-03-04T08:36:11;7.00;99.90
29203;DHT22;16245;51.170;4.884;2023-03-04T08:38:37;7.10;99.90
29203;DHT22;16245;51.170;4.884;2023-03-04T08:41:03;7.10;99.90
29203;DHT22;16245;51.170;4.884;2023-03-04T08:43:30;7.20;99.90
29203;DHT22;16245;51.170;4.884;2023-03-04T08:45:56;7.20;99.90
29203;DHT22;16245;51.170;4.884;2023-03-04T08:48:22;7.20;99.90
29203;DHT22;16245;51.170;4.884;2023-03-04T08:50:48;7.30;99.90
29203;DHT22;16245;51.170;4.884;2023-03-04T08:53:15;7.30;99.90
29203;DHT22;16245;51.170;4.884;2023-03-04T08:55:41;7.40;99.90
29203;DHT22;16245;51.170;4.884;2023-03-04T08:58:08;7.50;99.90
29203;DHT22;16245;51.170;4.884;2023-03-04T09:00:34;7.50;99.90
29203;DHT22;16245;51.170;4.884;2023-03-04T09:03:00;7.50;99.90
29203;DHT22;16245;51.170;4.884;2023-03-04T09:05:28;7.50;99.90
29203;DHT22;16245;51.170;4.884;2023-03-04T09:07:54;7.40;99.90
29203;DHT22;16245;51.170;4.884;2023-03-04T09:10:19;7.40;99.90
29203;DHT22;16245;51.170;4.884;2023-03-04T09:12:45;7.40;99.90
29203;DHT22;16245;51.170;4.884;2023-03-04T09:15:11;7.40;99.90
29203;DHT22;16245;51.170;4.884;2023-03-04T09:17:37;7.60;99.90
29203;DHT22;16245;51.170;4.884;2023-03-04T09:20:04;7.60;99.90
29203;DHT22;16245;51.170;4.884;2023-03-04T09:22:30;7.70;99.90
29203;DHT22;16245;51.170;4.884;2023-03-04T09:24:56;7.70;99.90
29203;DHT22;16245;51.170;4.884;2023-03-04T09:27:21;7.80;99.90
29203;DHT22;16245;51.170;4.884;2023-03-04T09:29:47;7.80;99.90
29203;DHT22;16245;51.170;4.884;2023-03-04T09:32:13;7.80;99.90
29203;DHT22;16245;51.170;4.884;2023-03-04T09:34:39;7.90;99.90
29203;DHT22;16245;51.170;4.884;2023-03-04T09:37:05;7.90;99.90
29203;DHT22;16245;51.170;4.884;2023-03-04T09:39:31;8.00;99.90
29203;DHT22;16245;51.170;4.884;2023-03-04T09:41:57;8.30;99.90
29203;DHT22;16245;51.170;4.884;2023-03-04T09:46:54;9.10;99.90
29203;DHT22;16245;51.170;4.884;2023-03-04T09:49:23;9.40;99.90
29203;DHT22;16245;51.170;4.884;2023-03-04T09:52:03;9.70;99.90
29203;DHT22;16245;51.170;4.884;2023-03-04T09:55:04;9.70;99.90
29203;DHT22;16245;51.170;4.884;2023-03-04T09:57:45;9.70;99.90
29203;DHT22;16245;51.170;4.884;2023-03-04T10:00:12;9.70;99.90
29203;DHT22;16245;51.170;4.884;2023-03-04T10:05:30;9.60;99.90
29203;DHT22;16245;51.170;4.884;2023-03-04T10:08:23;9.50;99.90
29203;DHT22;16245;51.170;4.884;2023-03-04T10:10:54;9.30;99.90
29203;DHT22;16245;51.170;4.884;2023-03-04T10:13:37;9.30;99.90
29203;DHT22;16245;51.170;4.884;2023-03-04T10:16:04;9.20;99.90
29203;DHT22;16245;51.170;4.884;2023-03-04T10:18:45;9.10;99.90
29203;DHT22;16245;51.170;4.884;2023-03-04T10:21:32;9.10;99.90
29203;DHT22;16245;51.170;4.884;2023-03-04T10:24:09;9.00;99.90
29203;DHT22;16245;51.170;4.884;2023-03-04T10:26:37;9.00;99.90
29203;DHT22;16245;51.170;4.884;2023-03-04T10:29:03;9.30;99.90
29203;DHT22;16245;51.170;4.884;2023-03-04T10:31:36;9.90;99.90
29203;DHT22;16245;51.170;4.884;2023-03-04T10:34:03;11.00;99.90
29203;DHT22;16245;51.170;4.884;2023-03-04T10:39:09;12.20;99.90
29203;DHT22;16245;51.170;4.884;2023-03-04T10:41:35;12.40;99.90
29203;DHT22;16245;51.170;4.884;2023-03-04T10:44:02;12.30;99.90
29203;DHT22;16245;51.170;4.884;2023-03-04T10:46:29;12.40;99.90
29203;DHT22;16245;51.170;4.884;2023-03-04T10:48:55;12.70;99.90
29203;DHT22;16245;51.170;4.884;2023-03-04T10:51:28;13.40;99.90
29203;DHT22;16245;51.170;4.884;2023-03-04T10:54:04;13.40;99.90
29203;DHT22;16245;51.170;4.884;2023-03-04T10:59:30;12.80;99.90
29203;DHT22;16245;51.170;4.884;2023-03-04T11:02:01;12.20;99.90
29203;DHT22;16245;51.170;4.884;2023-03-04T11:04:33;11.90;99.90
29203;DHT22;16245;51.170;4.884;2023-03-04T11:06:59;11.50;99.90
29203;DHT22;16245;51.170;4.884;2023-03-04T11:09:28;11.20;99.90
29203;DHT22;16245;51.170;4.884;2023-03-04T11:11:55;11.20;99.90
29203;DHT22;16245;51.170;4.884;2023-03-04T11:17:00;11.20;99.90
29203;DHT22;16245;51.170;4.884;2023-03-04T11:19:37;11.00;99.90
29203;DHT22;16245;51.170;4.884;2023-03-04T11:22:04;10.70;99.90
29203;DHT22;16245;51.170;4.884;2023-03-04T11:24:33;10.50;99.90
29203;DHT22;16245;51.170;4.884;2023-03-04T11:27:08;10.40;99.90
29203;DHT22;16245;51.170;4.884;2023-03-04T11:29:42;10.20;99.90
29203;DHT22;16245;51.170;4.884;2023-03-04T11:32:19;10.20;99.90
29203;DHT22;16245;51.170;4.884;2023-03-04T11:40:03;10.50;99.90
29203;DHT22;16245;51.170;4.884;2023-03-04T11:48:52;10.50;99.90
29203;DHT22;16245;51.170;4.884;2023-03-04T11:54:21;10.30;99.90
29203;DHT22;16245;51.170;4.884;2023-03-04T11:56:56;10.30;99.90
29203;DHT22;16245;51.170;4.884;2023-03-04T12:02:24;10.00;99.90
29203;DHT22;16245;51.170;4.884;2023-03-04T12:10:32;10.50;99.90
29203;DHT22;16245;51.170;4.884;2023-03-04T12:13:20;10.70;99.90
29203;DHT22;16245;51.170;4.884;2023-03-04T12:16:20;10.80;99.90
29203;DHT22;16245;51.170;4.884;2023-03-04T12:19:31;11.10;99.90
29203;DHT22;16245;51.170;4.884;2023-03-04T12:28:03;11.20;99.90
29203;DHT22;16245;51.170;4.884;2023-03-04T12:30:51;11.00;99.90
29203;DHT22;16245;51.170;4.884;2023-03-04T12:36:16;10.80;99.90
29203;DHT22;16245;51.170;4.884;2023-03-04T12:44:49;10.40;99.90
29203;DHT22;16245;51.170;4.884;2023-03-04T12:55:40;9.70;99.90
29203;DHT22;16245;51.170;4.884;2023-03-04T12:58:31;9.60;99.90
29203;DHT22;16245;51.170;4.884;2023-03-04T13:01:44;9.60;99.90
29203;DHT22;16245;51.170;4.884;2023-03-04T13:09:48;9.30;99.90
29203;DHT22;16245;51.170;4.884;2023-03-04T13:12:17;9.30;99.90
29203;DHT22;16245;51.170;4.884;2023-03-04T13:17:50;9.60;99.90
29203;DHT22;16245;51.170;4.884;2023-03-04T13:20:37;9.70;99.90
29203;DHT22;16245;51.170;4.884;2023-03-04T13:28:35;9.50;99.90
29203;DHT22;16245;51.170;4.884;2023-03-04T13:36:07;9.90;99.90
29203;DHT22;16245;51.170;4.884;2023-03-04T13:41:47;10.30;99.90
29203;DHT22;16245;51.170;4.884;2023-03-04T13:44:34;10.30;99.90
29203;DHT22;16245;51.170;4.884;2023-03-04T13:47:32;10.30;99.90
29203;DHT22;16245;51.170;4.884;2023-03-04T13:53:21;10.30;99.90
29203;DHT22;16245;51.170;4.884;2023-03-04T13:58:30;10.40;99.90
29203;DHT22;16245;51.170;4.884;2023-03-04T14:00:56;10.50;99.90
29203;DHT22;16245;51.170;4.884;2023-03-04T14:03:24;10.30;99.90
29203;DHT22;16245;51.170;4.884;2023-03-04T14:08:40;10.20;99.90
29203;DHT22;16245;51.170;4.884;2023-03-04T14:11:21;10.20;99.90
29203;DHT22;16245;51.170;4.884;2023-03-04T14:13:48;10.20;99.90
29203;DHT22;16245;51.170;4.884;2023-03-04T14:16:26;10.00;99.90
29203;DHT22;16245;51.170;4.884;2023-03-04T14:19:02;10.00;99.90
29203;DHT22;16245;51.170;4.884;2023-03-04T14:21:28;9.90;99.90
29203;DHT22;16245;51.170;4.884;2023-03-04T14:24:06;9.80;99.90
29203;DHT22;16245;51.170;4.884;2023-03-04T14:26:32;9.60;99.90
29203;DHT22;16245;51.170;4.884;2023-03-04T14:28:59;9.60;99.90
29203;DHT22;16245;51.170;4.884;2023-03-04T14:31:28;9.70;99.90
29203;DHT22;16245;51.170;4.884;2023-03-04T14:33:56;9.60;99.90
29203;DHT22;16245;51.170;4.884;2023-03-04T14:36:24;9.50;99.90
29203;DHT22;16245;51.170;4.884;2023-03-04T14:39:02;9.60;99.90
29203;DHT22;16245;51.170;4.884;2023-03-04T14:41:33;9.60;99.90
29203;DHT22;16245;51.170;4.884;2023-03-04T14:46:48;9.80;99.90
29203;DHT22;16245;51.170;4.884;2023-03-04T14:49:15;9.70;99.90
29203;DHT22;16245;51.170;4.884;2023-03-04T14:51:47;9.50;99.90
29203;DHT22;16245;51.170;4.884;2023-03-04T14:54:33;9.50;99.90
29203;DHT22;16245;51.170;4.884;2023-03-04T14:57:01;9.40;99.90
29203;DHT22;16245;51.170;4.884;2023-03-04T14:59:39;9.50;99.90
29203;DHT22;16245;51.170;4.884;2023-03-04T15:04:46;9.50;99.90
29203;DHT22;16245;51.170;4.884;2023-03-04T15:07:18;9.50;99.90
29203;DHT22;16245;51.170;4.884;2023-03-04T15:09:52;9.50;99.90
29203;DHT22;16245;51.170;4.884;2023-03-04T15:12:29;9.60;99.90
29203;DHT22;16245;51.170;4.884;2023-03-04T15:15:04;9.60;99.90
29203;DHT22;16245;51.170;4.884;2023-03-04T15:17:58;9.50;99.90
29203;DHT22;16245;51.170;4.884;2023-03-04T15:20:25;9.50;99.90
29203;DHT22;16245;51.170;4.884;2023-03-04T15:25:17;9.70;99.90
29203;DHT22;16245;51.170;4.884;2023-03-04T15:27:44;9.60;99.90
29203;DHT22;16245;51.170;4.884;2023-03-04T15:32:42;9.80;99.90
29203;DHT22;16245;51.170;4.884;2023-03-04T15:35:11;9.70;99.90
29203;DHT22;16245;51.170;4.884;2023-03-04T15:37:38;9.70;99.90
29203;DHT22;16245;51.170;4.884;2023-03-04T15:40:06;9.60;99.90
29203;DHT22;16245;51.170;4.884;2023-03-04T15:42:38;9.60;99.90
29203;DHT22;16245;51.170;4.884;2023-03-04T15:47:47;9.60;99.90
29203;DHT22;16245;51.170;4.884;2023-03-04T15:50:13;9.70;99.90
29203;DHT22;16245;51.170;4.884;2023-03-04T15:52:39;9.70;99.90
29203;DHT22;16245;51.170;4.884;2023-03-04T15:55:06;9.70;99.90
29203;DHT22;16245;51.170;4.884;2023-03-04T15:57:32;9.90;99.90
29203;DHT22;16245;51.170;4.884;2023-03-04T15:59:58;9.70;99.90
29203;DHT22;16245;51.170;4.884;2023-03-04T16:02:34;9.60;99.90
29203;DHT22;16245;51.170;4.884;2023-03-04T16:04:59;9.50;99.90
29203;DHT22;16245;51.170;4.884;2023-03-04T16:07:27;9.60;99.90
29203;DHT22;16245;51.170;4.884;2023-03-04T16:10:00;9.50;99.90
29203;DHT22;16245;51.170;4.884;2023-03-04T16:12:27;9.70;99.90
29203;DHT22;16245;51.170;4.884;2023-03-04T16:14:53;9.70;99.90
29203;DHT22;16245;51.170;4.884;2023-03-04T16:17:19;9.60;99.90
29203;DHT22;16245;51.170;4.884;2023-03-04T16:19:45;9.50;99.90
29203;DHT22;16245;51.170;4.884;2023-03-04T16:22:16;9.40;99.90
29203;DHT22;16245;51.170;4.884;2023-03-04T16:24:42;9.30;99.90
29203;DHT22;16245;51.170;4.884;2023-03-04T16:27:13;9.30;99.90
29203;DHT22;16245;51.170;4.884;2023-03-04T16:29:40;9.40;99.90
29203;DHT22;16245;51.170;4.884;2023-03-04T16:32:06;9.30;99.90
29203;DHT22;16245;51.170;4.884;2023-03-04T16:34:32;9.30;99.90
29203;DHT22;16245;51.170;4.884;2023-03-04T16:37:04;9.40;99.90
29203;DHT22;16245;51.170;4.884;2023-03-04T16:39:31;9.30;99.90
29203;DHT22;16245;51.170;4.884;2023-03-04T16:41:57;9.50;99.90
29203;DHT22;16245;51.170;4.884;2023-03-04T16:44:23;9.40;99.90
29203;DHT22;16245;51.170;4.884;2023-03-04T16:46:48;9.50;99.90
29203;DHT22;16245;51.170;4.884;2023-03-04T16:49:14;9.60;99.90
29203;DHT22;16245;51.170;4.884;2023-03-04T16:51:47;9.70;99.90
29203;DHT22;16245;51.170;4.884;2023-03-04T16:54:17;9.80;99.90
29203;DHT22;16245;51.170;4.884;2023-03-04T16:56:43;9.70;99.90
29203;DHT22;16245;51.170;4.884;2023-03-04T16:59:14;9.60;99.90
29203;DHT22;16245;51.170;4.884;2023-03-04T17:01:40;9.60;99.90
29203;DHT22;16245;51.170;4.884;2023-03-04T17:04:06;9.70;99.90
29203;DHT22;16245;51.170;4.884;2023-03-04T17:06:31;9.70;99.90
29203;DHT22;16245;51.170;4.884;2023-03-04T17:08:58;9.60;99.90
29203;DHT22;16245;51.170;4.884;2023-03-04T17:11:24;9.60;99.90
29203;DHT22;16245;51.170;4.884;2023-03-04T17:13:50;9.70;99.90
29203;DHT22;16245;51.170;4.884;2023-03-04T17:16:16;9.60;99.90
29203;DHT22;16245;51.170;4.884;2023-03-04T17:18:42;9.70;99.90
29203;DHT22;16245;51.170;4.884;2023-03-04T17:21:12;9.80;99.90
29203;DHT22;16245;51.170;4.884;2023-03-04T17:23:38;9.70;99.90
29203;DHT22;16245;51.170;4.884;2023-03-04T17:26:04;9.70;99.90
29203;DHT22;16245;51.170;4.884;2023-03-04T17:28:30;9.70;99.90
29203;DHT22;16245;51.170;4.884;2023-03-04T17:30:56;9.70;99.90
29203;DHT22;16245;51.170;4.884;2023-03-04T17:33:22;9.70;99.90
29203;DHT22;16245;51.170;4.884;2023-03-04T17:35:48;9.80;99.90
29203;DHT22;16245;51.170;4.884;2023-03-04T17:38:15;9.70;99.90
29203;DHT22;16245;51.170;4.884;2023-03-04T17:40:43;9.60;99.90
29203;DHT22;16245;51.170;4.884;2023-03-04T17:43:08;9.50;99.90